Airfield :
LOGIN :

Register | Disclaimer

   EN    FR    IT 

 










Legend :    VFR   Marginal VFR   IFR   Intensive IFR   Very Intensive IFR
Visi :
Ceiling :
>= 8 km
>= 3000ft
5 to 8 km
1000 to 3000 ft
1500m to 5 km
500 to 1000 ft
800 to 1500m
200 to 500 ft
< 800m
< 200 ft
Symbols :   Thunderstorms  Fog  Heavy snow  Heavy precipitations  Wind > 20 kt
SIGMETs :     Misc.  Thunderstorms  Icing  Turbulence  Mountain Waves  Volcanic Ashes







- Airport Elevation : 0 ft
- IATA code : QFR


LIRH - Frosinone Military

CURRENT METAR :
  • 160755Z 02003KT 5000 BR SCT030 00/M02 Q1023 RMK SCT MON NE CIME INC NC VIS MIN 5000 WIND THR16 /////KT WHT

EXPIRED METARs :
  • 160655Z 30002KT 5000 BR SCT030 M02/M02 Q1023 RMK SCT MON NE CIME INC VAR RAPID VIS MIN 5000 WIND THR16 /////KT WHT
  • 160555Z 01002KT 8000 SCT030 M00/M01 Q1023 RMK SCT MON INVIS NC VIS MIN 8000 WIND THR16 /////KT BLU

TAF TAF LIRH
Valid from the 16 at 09:00 until the 16 at 18:00 UTC


160800Z 1609/1618 VRB03KT CAVOK
TEMPO 1609/1611 5000 BR FEW030
No reported NOTAMs for that airfield.



MET'MAP, your aeronautical weather chart ! - Copyright ORBIFLY December 2007 - Disclaimer

ORBIFLY MET'MAP TEAM :

Programming & Development : Alexandra Zaïnal
Concept & Development : Baudouin d'Aumeries
Co-Development & Prog : Marc-Olivier Méhu
Technical & hardware support : Manuel Goepfert

Contact : metmap@orbifly.com




SOURCES & CREDITS :

   NOAA